METAR Data
IDs: Format: Raw Decoded Include TAF

Data at: 0452 UTC 21 Sep 2018

KMDH 210352Z AUTO 16005KT 10SM CLR 23/20 A2995 RMK AO2 SLP138 T02280200
KMDH 210252Z AUTO 18006KT 10SM CLR 24/20 A2994 RMK AO2 SLP135 T02390200 53003
KMDH 210152Z 18005KT 10SM CLR 24/21 A2994 RMK AO2 SLP134 T02390206
KMDH 210052Z 16005KT 10SM CLR 24/22 A2993 RMK AO2 SLP130 T02440217
KMDH 202352Z 15005KT 10SM CLR 27/22 A2993 RMK AO2 SLP132 T02720217 10328 20267 56009
KMDH 202252Z 16006KT 10SM CLR 31/22 A2994 RMK AO2 SLP133 T03060217
KMDH 202152Z 19007KT 10SM CLR 32/22 A2995 RMK AO2 SLP138 T03170217
KMDH 202052Z 17010KT 10SM CLR 32/22 A2996 RMK AO2 SLP140 T03220222 56018
KMDH 201952Z 19010G16KT 10SM CLR 32/23 A2997 RMK AO2 SLP143 T03220228
KMDH 201852Z 20010G17KT 10SM CLR 32/23 A2999 RMK AO2 SLP150 T03220233
KMDH 201752Z 18010G16KT 10SM CLR 32/23 A3001 RMK AO2 SLP158 T03170228 10317 20200 58013
KMDH 201652Z 21010G19KT 10SM CLR 31/22 A3003 RMK AO2 SLP164 T03110222
KMDH 201552Z 19007KT 10SM CLR 30/23 A3004 RMK AO2 SLP168 T03000233
KMDH 201452Z 20007KT 10SM CLR 28/23 A3005 RMK AO2 SLP172 T02830228 52011
KMDH 201352Z 19004KT 10SM CLR 26/23 A3004 RMK AO2 SLP168 T02560233
KMDH 201252Z 00000KT 4SM BR CLR 23/23 A3003 RMK AO2 SLP165 T02330228
KMDH 201152Z 00000KT 4SM BR FEW110 21/20 A3002 RMK AO2 SLP161 7//// T02060200 10222 20200 53010
KMDH 201139Z AUTO 00000KT 5SM BR CLR 21/20 A3001 RMK AO2 T02060200
KMDH 201131Z AUTO 13003KT 2SM BR CLR 20/20 A3001 RMK AO2 T02000200
KMDH 201122Z AUTO 12003KT 1/2SM FG CLR 20/20 A3000 RMK AO2 T02000200
KMDH 201114Z AUTO 13003KT 1SM BR CLR 20/20 A3000 RMK AO2 T02000200
KMDH 201052Z AUTO 00000KT 2 1/2SM BR CLR 21/21 A3000 RMK AO2 SLP156 T02060206
KMDH 201032Z AUTO 10003KT 2 1/2SM BR CLR 21/21 A3000 RMK AO2 T02060206
KMDH 201012Z AUTO 10003KT 1 1/4SM BR FEW004 20/20 A2999 RMK AO2 T02000200
KMDH 201005Z AUTO 10003KT 1/2SM FG VV004 20/20 A2999 RMK AO2 T02000200
KMDH 200952Z AUTO 00000KT 1/4SM FG VV005 20/20 A2999 RMK AO2 SLP151 T02000200
KMDH 200948Z AUTO 10003KT 1/2SM FG CLR 21/21 A2999 RMK AO2
KMDH 200939Z AUTO 00000KT 1/2SM FG VV006 21/21 A2999 RMK AO2 T02110211
KMDH 200932Z AUTO 00000KT 3/4SM BR CLR 21/21 A2999 RMK AO2 T02060206
KMDH 200929Z AUTO 00000KT 2SM BR CLR 21/21 A2999 RMK AO2 VIS 3/4V3 T02060206
KMDH 200914Z AUTO 00000KT 3SM BR CLR 21/21 A2998 RMK AO2 T02060206
KMDH 200901Z AUTO 00000KT 1 3/4SM BR CLR 21/21 A2998 RMK AO2 T02110211
KMDH 200852Z AUTO 00000KT 1/2SM FG CLR 21/21 A2998 RMK AO2 SLP149 T02110211 53003
KMDH 200820Z AUTO 00000KT 1 3/4SM BR CLR 21/21 A2998 RMK AO2 T02110211
KMDH 200752Z AUTO 00000KT 5SM BR CLR 22/22 A2998 RMK AO2 SLP147 T02170217
KMDH 200652Z AUTO 00000KT 7SM CLR 22/22 A2997 RMK AO2 SLP145 T02220217
KMDH 200552Z AUTO 00000KT 6SM BR CLR 22/22 A2997 RMK AO2 SLP146 T02220222 10261 20217 403000183 58001
KMDH 200516Z AUTO 14003KT 3SM BR CLR 22/22 A2998 RMK AO2 T02170217
KMDH 200508Z AUTO 14004KT 2SM BR CLR 22/22 A2997 RMK AO2 T02220222
KMDH 200452Z AUTO 00000KT 1/2SM FG CLR 22/22 A2998 RMK AO2 SLP147 T02220222
KMDH 200450Z AUTO 00000KT 3/4SM BR CLR 22/22 A2998 RMK AO2
KMDH 200445Z AUTO 00000KT 2 1/2SM BR CLR 22/22 A2998 RMK AO2 VIS 1 3/4V3 T02220222
KMDH 200438Z AUTO 00000KT 1 3/4SM BR CLR 22/22 A2998 RMK AO2 T02170217
KMDH 200420Z AUTO 00000KT 1/2SM FG CLR 22/22 A2998 RMK AO2 T02220222
KMDH 200409Z AUTO 00000KT 1 3/4SM BR CLR 22/22 A2998 RMK AO2 T02220222
KMDH 200352Z AUTO 00000KT 6SM BR CLR 23/23 A2998 RMK AO2 SLP148 T02280228
KMDH 200349Z AUTO 10003KT 4SM BR CLR 23/23 A2998 RMK AO2
KMDH 200335Z AUTO 00000KT 2SM BR CLR 22/22 A2998 RMK AO2 T02220222
KMDH 200318Z AUTO 11004KT 1/2SM FG CLR 22/22 A2998 RMK AO2 T02170217
KMDH 200311Z AUTO 10003KT 1/4SM FG CLR 22/22 A2998 RMK AO2 T02170217
KMDH 200252Z AUTO 00000KT 1/2SM FG CLR 22/22 A2998 RMK AO2 SLP148 T02170217 53007
KMDH 200240Z AUTO 06003KT 1/2SM FG CLR 22/22 A2998 RMK AO2 T02220222
KMDH 200230Z AUTO 00000KT 1 3/4SM BR CLR 23/22 A2998 RMK AO2 T02280222
KMDH 200152Z 17004KT 9SM CLR 23/23 A2997 RMK AO2 SLP144 T02280228
KMDH 200052Z 00000KT 7SM FEW120 23/23 A2996 RMK AO2 SLP141 T02330233
KMDH 192352Z 00000KT 10SM CLR 26/24 A2996 RMK AO2 SLP141 T02610239 10300 20244 53000
KMDH 192252Z 22003KT 10SM CLR 29/24 A2995 RMK AO2 SLP137 T02890244
KMDH 192152Z 21004KT 10SM CLR 29/24 A2995 RMK AO2 SLP137 T02940244
KMDH 192052Z 20005KT 10SM SCT120 29/24 A2996 RMK AO2 SLP140 T02890244 56020
KMDH 191952Z 23004KT 10SM FEW120 28/24 A2997 RMK AO2 SLP146 T02830244
KMDH 191852Z 18004KT 10SM CLR 26/23 A2999 RMK AO2 SLP151 T02610233
KMDH 191752Z 17006KT 10SM FEW110 24/23 A3002 RMK AO2 RAB00E35 SLP161 P0001 6//// T02440228 10244 20228 58005